Mount Sunapee, New Hampshire
Current Conditions -  °F | °C
As of 8:53 AM on Monday 24 Nov 2014 (Local Time) from KLEB Reporting Station
Overcast Overcast  
Wind Chill: 53°   Ceiling: 1800
Heat Index: 53°   Visibility: 10mi
Dew Point: 49°   Wind: 5mph
Humidity: 86%   Direction: NA
Pressure: 29.64"   Gusts: NA
Location:  43.3732°N, 72.0415°W
Report Text: KLEB 241353Z VRB04KT 10SM OVC018 12/09 A2964 RMK AO2 RAE44 SLP036 P0002 T01170094
Loading
Personal Weather Stations






























Interactive Weather Map New forecast layout! Learn more

10-Day Weather Forecast

Advertisements
Track Severe Weather on mobile